sensor_id;sensor_type;location;lat;lon;timestamp;noise_LAeq;noise_LA_min;noise_LA_max;noise_LA01;noise_LA95
72276;Laerm;61204;49.980;8.358;2023-08-07T00:00:56;54.30;39.86;73.06;;
72276;Laerm;61204;49.980;8.358;2023-08-07T00:03:22;50.84;41.95;67.60;;
72276;Laerm;61204;49.980;8.358;2023-08-07T00:05:50;54.88;43.28;73.25;;
72276;Laerm;61204;49.980;8.358;2023-08-07T00:08:20;58.15;44.35;76.19;;
72276;Laerm;61204;49.980;8.358;2023-08-07T00:10:46;59.95;43.81;80.85;;
72276;Laerm;61204;49.980;8.358;2023-08-07T00:13:12;57.93;43.61;76.21;;
72276;Laerm;61204;49.980;8.358;2023-08-07T00:15:38;57.63;41.89;74.88;;
72276;Laerm;61204;49.980;8.358;2023-08-07T00:18:04;64.13;44.58;81.95;;
72276;Laerm;61204;49.980;8.358;2023-08-07T00:20:30;60.32;43.10;75.98;;
72276;Laerm;61204;49.980;8.358;2023-08-07T00:22:58;57.55;42.81;74.09;;
72276;Laerm;61204;49.980;8.358;2023-08-07T00:25:23;55.53;41.82;71.91;;
72276;Laerm;61204;49.980;8.358;2023-08-07T00:27:49;54.98;41.74;70.13;;
72276;Laerm;61204;49.980;8.358;2023-08-07T00:30:15;53.91;41.30;72.96;;
72276;Laerm;61204;49.980;8.358;2023-08-07T00:32:40;58.07;43.37;73.97;;
72276;Laerm;61204;49.980;8.358;2023-08-07T00:35:06;57.89;44.16;82.05;;
72276;Laerm;61204;49.980;8.358;2023-08-07T00:37:34;54.66;42.96;74.80;;
72276;Laerm;61204;49.980;8.358;2023-08-07T00:40:01;55.51;45.44;70.25;;
72276;Laerm;61204;49.980;8.358;2023-08-07T00:42:27;57.47;42.06;74.59;;
72276;Laerm;61204;49.980;8.358;2023-08-07T00:44:53;62.21;44.73;79.31;;
72276;Laerm;61204;49.980;8.358;2023-08-07T00:47:19;58.59;44.37;81.47;;
72276;Laerm;61204;49.980;8.358;2023-08-07T00:49:45;63.77;44.19;84.10;;
72276;Laerm;61204;49.980;8.358;2023-08-07T00:52:13;55.35;41.58;72.96;;
72276;Laerm;61204;49.980;8.358;2023-08-07T00:54:38;56.26;43.71;76.32;;
72276;Laerm;61204;49.980;8.358;2023-08-07T00:57:13;54.46;43.32;70.45;;
72276;Laerm;61204;49.980;8.358;2023-08-07T00:59:42;63.02;43.09;78.98;;
72276;Laerm;61204;49.980;8.358;2023-08-07T01:02:11;50.46;41.28;70.45;;
72276;Laerm;61204;49.980;8.358;2023-08-07T01:04:38;54.51;45.40;70.07;;
72276;Laerm;61204;49.980;8.358;2023-08-07T01:07:04;59.01;43.66;80.86;;
72276;Laerm;61204;49.980;8.358;2023-08-07T01:09:33;58.81;44.93;76.70;;
72276;Laerm;61204;49.980;8.358;2023-08-07T01:12:17;54.38;43.76;70.09;;
72276;Laerm;61204;49.980;8.358;2023-08-07T01:15:10;58.15;44.03;76.97;;
72276;Laerm;61204;49.980;8.358;2023-08-07T01:17:39;53.79;44.14;75.96;;
72276;Laerm;61204;49.980;8.358;2023-08-07T01:20:08;55.42;42.87;71.91;;
72276;Laerm;61204;49.980;8.358;2023-08-07T01:22:34;63.02;43.97;81.07;;
72276;Laerm;61204;49.980;8.358;2023-08-07T01:25:02;53.69;43.54;71.90;;
72276;Laerm;61204;49.980;8.358;2023-08-07T01:27:37;55.34;44.48;74.41;;
72276;Laerm;61204;49.980;8.358;2023-08-07T01:30:30;52.88;42.33;70.67;;
72276;Laerm;61204;49.980;8.358;2023-08-07T01:33:16;51.83;42.22;68.47;;
72276;Laerm;61204;49.980;8.358;2023-08-07T01:35:53;56.52;45.35;77.08;;
72276;Laerm;61204;49.980;8.358;2023-08-07T01:38:26;60.17;45.85;76.42;;
72276;Laerm;61204;49.980;8.358;2023-08-07T01:40:54;59.64;46.24;80.47;;
72276;Laerm;61204;49.980;8.358;2023-08-07T01:43:20;58.79;44.68;79.17;;
72276;Laerm;61204;49.980;8.358;2023-08-07T01:45:46;60.60;43.95;80.13;;
72276;Laerm;61204;49.980;8.358;2023-08-07T01:48:12;58.75;43.98;79.09;;
72276;Laerm;61204;49.980;8.358;2023-08-07T01:50:41;62.75;43.54;79.54;;
72276;Laerm;61204;49.980;8.358;2023-08-07T01:53:07;58.60;44.57;76.31;;
72276;Laerm;61204;49.980;8.358;2023-08-07T01:55:35;59.49;46.07;78.02;;
72276;Laerm;61204;49.980;8.358;2023-08-07T01:58:00;63.19;45.47;78.94;;
72276;Laerm;61204;49.980;8.358;2023-08-07T02:00:29;55.94;45.60;79.26;;
72276;Laerm;61204;49.980;8.358;2023-08-07T02:02:57;61.15;44.93;77.71;;
72276;Laerm;61204;49.980;8.358;2023-08-07T02:05:22;63.62;46.48;80.95;;
72276;Laerm;61204;49.980;8.358;2023-08-07T02:07:48;61.39;47.47;81.10;;
72276;Laerm;61204;49.980;8.358;2023-08-07T02:10:14;58.58;45.64;78.39;;
72276;Laerm;61204;49.980;8.358;2023-08-07T02:12:39;63.61;47.87;81.32;;
72276;Laerm;61204;49.980;8.358;2023-08-07T02:15:06;56.68;46.50;73.40;;
72276;Laerm;61204;49.980;8.358;2023-08-07T02:17:32;58.63;45.55;76.90;;
72276;Laerm;61204;49.980;8.358;2023-08-07T02:19:58;53.46;45.92;68.46;;
72276;Laerm;61204;49.980;8.358;2023-08-07T02:22:25;59.22;45.13;79.01;;
72276;Laerm;61204;49.980;8.358;2023-08-07T02:24:51;64.53;49.13;82.52;;
72276;Laerm;61204;49.980;8.358;2023-08-07T02:27:16;57.75;46.75;76.40;;
72276;Laerm;61204;49.980;8.358;2023-08-07T02:29:44;63.68;47.75;85.12;;
72276;Laerm;61204;49.980;8.358;2023-08-07T02:32:12;63.43;48.10;82.79;;
72276;Laerm;61204;49.980;8.358;2023-08-07T02:34:38;62.83;45.13;81.52;;
72276;Laerm;61204;49.980;8.358;2023-08-07T02:37:04;60.21;44.22;76.26;;
72276;Laerm;61204;49.980;8.358;2023-08-07T02:39:29;60.87;46.79;79.58;;
72276;Laerm;61204;49.980;8.358;2023-08-07T02:41:55;64.49;46.76;85.17;;
72276;Laerm;61204;49.980;8.358;2023-08-07T02:44:20;58.69;46.64;78.89;;
72276;Laerm;61204;49.980;8.358;2023-08-07T02:46:46;56.95;47.71;79.98;;
72276;Laerm;61204;49.980;8.358;2023-08-07T02:49:12;57.24;49.00;76.31;;
72276;Laerm;61204;49.980;8.358;2023-08-07T02:51:37;58.69;47.24;79.82;;
72276;Laerm;61204;49.980;8.358;2023-08-07T02:54:05;63.39;45.89;81.97;;
72276;Laerm;61204;49.980;8.358;2023-08-07T02:56:30;58.57;46.60;76.32;;
72276;Laerm;61204;49.980;8.358;2023-08-07T02:58:56;65.25;50.37;84.94;;
72276;Laerm;61204;49.980;8.358;2023-08-07T03:01:23;55.17;48.57;69.45;;
72276;Laerm;61204;49.980;8.358;2023-08-07T03:03:49;64.44;48.37;82.84;;
72276;Laerm;61204;49.980;8.358;2023-08-07T03:06:15;69.24;50.76;84.20;;
72276;Laerm;61204;49.980;8.358;2023-08-07T03:08:40;63.98;49.17;81.67;;
72276;Laerm;61204;49.980;8.358;2023-08-07T03:11:10;61.24;49.39;80.66;;
72276;Laerm;61204;49.980;8.358;2023-08-07T03:13:38;67.13;49.55;92.07;;
72276;Laerm;61204;49.980;8.358;2023-08-07T03:16:05;65.68;50.10;88.67;;
72276;Laerm;61204;49.980;8.358;2023-08-07T03:18:33;69.35;50.86;87.12;;
72276;Laerm;61204;49.980;8.358;2023-08-07T03:20:59;63.20;50.09;78.24;;
72276;Laerm;61204;49.980;8.358;2023-08-07T03:23:27;65.11;47.56;82.66;;
72276;Laerm;61204;49.980;8.358;2023-08-07T03:26:09;58.41;49.45;75.41;;
72276;Laerm;61204;49.980;8.358;2023-08-07T03:28:36;64.36;49.97;85.89;;
72276;Laerm;61204;49.980;8.358;2023-08-07T03:31:03;54.54;48.66;72.33;;
72276;Laerm;61204;49.980;8.358;2023-08-07T03:33:29;58.28;49.56;74.29;;
72276;Laerm;61204;49.980;8.358;2023-08-07T03:35:55;59.44;49.69;81.19;;
72276;Laerm;61204;49.980;8.358;2023-08-07T03:38:20;61.90;51.44;81.28;;
72276;Laerm;61204;49.980;8.358;2023-08-07T03:40:46;61.56;50.48;82.76;;
72276;Laerm;61204;49.980;8.358;2023-08-07T03:43:12;61.68;51.70;79.08;;
72276;Laerm;61204;49.980;8.358;2023-08-07T03:45:39;58.53;49.87;77.96;;
72276;Laerm;61204;49.980;8.358;2023-08-07T03:48:05;61.98;51.06;83.04;;
72276;Laerm;61204;49.980;8.358;2023-08-07T03:50:31;62.09;50.30;77.19;;
72276;Laerm;61204;49.980;8.358;2023-08-07T03:53:00;62.23;49.27;83.84;;
72276;Laerm;61204;49.980;8.358;2023-08-07T03:55:26;59.12;51.72;80.25;;
72276;Laerm;61204;49.980;8.358;2023-08-07T03:57:52;60.67;49.10;76.70;;
72276;Laerm;61204;49.980;8.358;2023-08-07T04:00:18;65.61;49.80;82.91;;
72276;Laerm;61204;49.980;8.358;2023-08-07T04:02:47;58.81;51.35;74.67;;
72276;Laerm;61204;49.980;8.358;2023-08-07T04:05:12;63.70;50.59;81.86;;
72276;Laerm;61204;49.980;8.358;2023-08-07T04:07:38;67.14;50.84;84.79;;
72276;Laerm;61204;49.980;8.358;2023-08-07T04:10:04;63.42;51.73;85.02;;
72276;Laerm;61204;49.980;8.358;2023-08-07T04:12:30;62.96;52.15;86.70;;
72276;Laerm;61204;49.980;8.358;2023-08-07T04:14:56;65.28;51.96;83.03;;
72276;Laerm;61204;49.980;8.358;2023-08-07T04:17:21;66.54;52.62;85.27;;
72276;Laerm;61204;49.980;8.358;2023-08-07T04:19:47;69.16;53.66;87.75;;
72276;Laerm;61204;49.980;8.358;2023-08-07T04:22:12;63.38;52.36;85.30;;
72276;Laerm;61204;49.980;8.358;2023-08-07T04:24:40;57.27;51.59;72.76;;
72276;Laerm;61204;49.980;8.358;2023-08-07T04:27:06;61.24;51.56;78.82;;
72276;Laerm;61204;49.980;8.358;2023-08-07T04:29:31;63.50;50.86;82.37;;
72276;Laerm;61204;49.980;8.358;2023-08-07T04:31:57;58.96;52.10;78.90;;
72276;Laerm;61204;49.980;8.358;2023-08-07T04:34:23;63.23;51.91;80.12;;
72276;Laerm;61204;49.980;8.358;2023-08-07T04:36:48;60.44;52.42;78.31;;
72276;Laerm;61204;49.980;8.358;2023-08-07T04:39:15;64.97;53.49;83.14;;
72276;Laerm;61204;49.980;8.358;2023-08-07T04:41:41;60.54;53.65;76.27;;
72276;Laerm;61204;49.980;8.358;2023-08-07T04:44:07;64.52;53.06;86.55;;
72276;Laerm;61204;49.980;8.358;2023-08-07T04:46:32;60.92;52.40;79.59;;
72276;Laerm;61204;49.980;8.358;2023-08-07T04:48:59;65.14;53.15;82.05;;
72276;Laerm;61204;49.980;8.358;2023-08-07T04:51:26;61.93;52.11;83.56;;
72276;Laerm;61204;49.980;8.358;2023-08-07T04:53:52;61.63;52.76;80.84;;
72276;Laerm;61204;49.980;8.358;2023-08-07T04:56:17;57.82;52.37;75.47;;
72276;Laerm;61204;49.980;8.358;2023-08-07T04:58:46;66.78;51.39;85.20;;
72276;Laerm;61204;49.980;8.358;2023-08-07T05:01:11;65.81;52.35;84.35;;
72276;Laerm;61204;49.980;8.358;2023-08-07T05:03:37;59.18;52.52;72.91;;
72276;Laerm;61204;49.980;8.358;2023-08-07T05:06:05;62.05;54.05;76.63;;
72276;Laerm;61204;49.980;8.358;2023-08-07T05:08:31;62.90;51.81;80.47;;
72276;Laerm;61204;49.980;8.358;2023-08-07T05:10:59;64.47;52.33;81.85;;
72276;Laerm;61204;49.980;8.358;2023-08-07T05:13:25;62.14;51.65;81.65;;
72276;Laerm;61204;49.980;8.358;2023-08-07T05:15:50;59.62;52.21;74.31;;
72276;Laerm;61204;49.980;8.358;2023-08-07T05:18:17;62.79;51.89;78.30;;
72276;Laerm;61204;49.980;8.358;2023-08-07T05:20:43;62.53;54.38;78.65;;
72276;Laerm;61204;49.980;8.358;2023-08-07T05:23:09;59.33;52.25;74.28;;
72276;Laerm;61204;49.980;8.358;2023-08-07T05:25:36;60.96;52.56;75.35;;
72276;Laerm;61204;49.980;8.358;2023-08-07T05:28:02;60.20;52.47;74.67;;
72276;Laerm;61204;49.980;8.358;2023-08-07T05:30:28;60.21;51.59;79.73;;
72276;Laerm;61204;49.980;8.358;2023-08-07T05:32:56;60.90;52.48;78.70;;
72276;Laerm;61204;49.980;8.358;2023-08-07T05:35:24;64.63;53.01;79.95;;
72276;Laerm;61204;49.980;8.358;2023-08-07T05:37:50;64.66;53.36;80.17;;
72276;Laerm;61204;49.980;8.358;2023-08-07T05:40:15;64.98;52.03;83.85;;
72276;Laerm;61204;49.980;8.358;2023-08-07T05:42:41;58.87;52.68;74.85;;
72276;Laerm;61204;49.980;8.358;2023-08-07T05:45:08;64.36;53.98;80.11;;
72276;Laerm;61204;49.980;8.358;2023-08-07T05:47:33;65.87;53.68;83.03;;
72276;Laerm;61204;49.980;8.358;2023-08-07T05:49:59;62.91;52.70;83.61;;
72276;Laerm;61204;49.980;8.358;2023-08-07T05:52:24;68.30;51.84;85.89;;
72276;Laerm;61204;49.980;8.358;2023-08-07T05:54:50;58.85;52.44;74.41;;
72276;Laerm;61204;49.980;8.358;2023-08-07T05:57:17;58.54;51.07;73.98;;
72276;Laerm;61204;49.980;8.358;2023-08-07T05:59:43;59.07;51.90;73.81;;
72276;Laerm;61204;49.980;8.358;2023-08-07T06:02:08;61.26;52.84;80.81;;
72276;Laerm;61204;49.980;8.358;2023-08-07T06:04:36;58.71;52.74;75.94;;
72276;Laerm;61204;49.980;8.358;2023-08-07T06:07:02;59.14;52.73;72.06;;
72276;Laerm;61204;49.980;8.358;2023-08-07T06:09:27;57.48;51.05;71.54;;
72276;Laerm;61204;49.980;8.358;2023-08-07T06:11:53;59.32;53.45;72.55;;
72276;Laerm;61204;49.980;8.358;2023-08-07T06:14:19;65.54;51.75;84.50;;
72276;Laerm;61204;49.980;8.358;2023-08-07T06:16:44;67.53;52.59;85.15;;
72276;Laerm;61204;49.980;8.358;2023-08-07T06:19:10;66.32;53.38;85.53;;
72276;Laerm;61204;49.980;8.358;2023-08-07T06:21:35;58.02;53.13;72.10;;
72276;Laerm;61204;49.980;8.358;2023-08-07T06:24:01;61.57;52.09;80.53;;
72276;Laerm;61204;49.980;8.358;2023-08-07T06:26:27;62.57;51.41;80.93;;
72276;Laerm;61204;49.980;8.358;2023-08-07T06:28:52;62.63;51.77;78.94;;
72276;Laerm;61204;49.980;8.358;2023-08-07T06:31:18;64.40;51.84;86.04;;
72276;Laerm;61204;49.980;8.358;2023-08-07T06:33:44;60.35;52.16;77.26;;
72276;Laerm;61204;49.980;8.358;2023-08-07T06:36:09;62.48;53.22;80.82;;
72276;Laerm;61204;49.980;8.358;2023-08-07T06:38:35;59.30;51.84;74.53;;
72276;Laerm;61204;49.980;8.358;2023-08-07T06:41:01;58.68;52.48;74.79;;
72276;Laerm;61204;49.980;8.358;2023-08-07T06:43:27;62.92;52.46;80.59;;
72276;Laerm;61204;49.980;8.358;2023-08-07T06:45:55;58.59;52.27;75.53;;
72276;Laerm;61204;49.980;8.358;2023-08-07T06:48:21;57.49;52.47;71.02;;
72276;Laerm;61204;49.980;8.358;2023-08-07T06:50:50;59.99;51.46;84.01;;
72276;Laerm;61204;49.980;8.358;2023-08-07T06:53:19;61.30;52.77;77.97;;
72276;Laerm;61204;49.980;8.358;2023-08-07T06:55:46;56.44;50.68;68.73;;
72276;Laerm;61204;49.980;8.358;2023-08-07T06:58:11;57.48;52.50;71.38;;
72276;Laerm;61204;49.980;8.358;2023-08-07T07:00:37;62.55;52.93;79.17;;
72276;Laerm;61204;49.980;8.358;2023-08-07T07:03:04;63.24;52.36;78.83;;
72276;Laerm;61204;49.980;8.358;2023-08-07T07:05:30;60.58;50.43;79.16;;
72276;Laerm;61204;49.980;8.358;2023-08-07T07:07:57;62.31;52.50;77.61;;
72276;Laerm;61204;49.980;8.358;2023-08-07T07:10:23;61.23;52.24;76.91;;
72276;Laerm;61204;49.980;8.358;2023-08-07T07:12:51;62.21;51.59;79.49;;
72276;Laerm;61204;49.980;8.358;2023-08-07T07:15:20;62.59;52.12;81.99;;
72276;Laerm;61204;49.980;8.358;2023-08-07T07:17:45;57.10;50.73;70.57;;
72276;Laerm;61204;49.980;8.358;2023-08-07T07:20:11;63.25;52.25;79.51;;
72276;Laerm;61204;49.980;8.358;2023-08-07T07:22:39;58.59;51.60;73.26;;
72276;Laerm;61204;49.980;8.358;2023-08-07T07:25:06;63.58;53.47;80.15;;
72276;Laerm;61204;49.980;8.358;2023-08-07T07:27:32;59.63;51.29;77.27;;
72276;Laerm;61204;49.980;8.358;2023-08-07T07:29:57;61.01;51.46;77.11;;
72276;Laerm;61204;49.980;8.358;2023-08-07T07:32:23;61.91;52.48;81.27;;
72276;Laerm;61204;49.980;8.358;2023-08-07T07:34:51;58.37;52.67;71.95;;
72276;Laerm;61204;49.980;8.358;2023-08-07T07:37:19;56.28;50.81;70.34;;
72276;Laerm;61204;49.980;8.358;2023-08-07T07:39:45;61.04;51.52;77.47;;
72276;Laerm;61204;49.980;8.358;2023-08-07T07:42:10;61.44;51.31;78.74;;
72276;Laerm;61204;49.980;8.358;2023-08-07T07:44:36;59.00;52.22;74.58;;
72276;Laerm;61204;49.980;8.358;2023-08-07T07:47:02;58.21;51.90;77.51;;
72276;Laerm;61204;49.980;8.358;2023-08-07T07:49:28;60.87;52.32;78.64;;
72276;Laerm;61204;49.980;8.358;2023-08-07T07:51:53;57.29;51.92;69.71;;
72276;Laerm;61204;49.980;8.358;2023-08-07T07:54:21;59.25;51.85;72.64;;
72276;Laerm;61204;49.980;8.358;2023-08-07T07:56:47;61.98;52.00;78.58;;
72276;Laerm;61204;49.980;8.358;2023-08-07T07:59:14;61.11;51.16;78.83;;
72276;Laerm;61204;49.980;8.358;2023-08-07T08:01:40;55.76;50.56;67.71;;
72276;Laerm;61204;49.980;8.358;2023-08-07T08:04:08;57.25;51.02;67.23;;
72276;Laerm;61204;49.980;8.358;2023-08-07T08:06:39;57.42;51.86;77.28;;
72276;Laerm;61204;49.980;8.358;2023-08-07T08:09:04;64.80;51.24;87.30;;
72276;Laerm;61204;49.980;8.358;2023-08-07T08:11:31;60.95;51.71;79.59;;
72276;Laerm;61204;49.980;8.358;2023-08-07T08:13:57;60.39;52.84;76.69;;
72276;Laerm;61204;49.980;8.358;2023-08-07T08:16:22;58.79;51.41;73.35;;
72276;Laerm;61204;49.980;8.358;2023-08-07T08:18:48;59.23;52.02;72.70;;
72276;Laerm;61204;49.980;8.358;2023-08-07T08:21:13;59.41;52.14;72.96;;
72276;Laerm;61204;49.980;8.358;2023-08-07T08:23:41;57.88;51.93;71.48;;
72276;Laerm;61204;49.980;8.358;2023-08-07T08:26:07;59.83;52.92;75.70;;
72276;Laerm;61204;49.980;8.358;2023-08-07T08:28:33;59.31;51.83;77.47;;
72276;Laerm;61204;49.980;8.358;2023-08-07T08:30:58;61.97;50.55;84.68;;
72276;Laerm;61204;49.980;8.358;2023-08-07T08:33:24;57.79;51.94;69.83;;
72276;Laerm;61204;49.980;8.358;2023-08-07T08:35:49;58.60;51.51;75.82;;
72276;Laerm;61204;49.980;8.358;2023-08-07T08:38:15;61.76;50.63;81.69;;
72276;Laerm;61204;49.980;8.358;2023-08-07T08:40:43;62.71;51.76;83.22;;
72276;Laerm;61204;49.980;8.358;2023-08-07T08:43:13;58.63;51.80;76.34;;
72276;Laerm;61204;49.980;8.358;2023-08-07T08:45:44;64.39;51.58;84.96;;
72276;Laerm;61204;49.980;8.358;2023-08-07T08:48:20;59.85;51.45;86.30;;
72276;Laerm;61204;49.980;8.358;2023-08-07T08:50:50;64.27;50.94;81.96;;
72276;Laerm;61204;49.980;8.358;2023-08-07T08:53:20;59.04;50.62;75.14;;
72276;Laerm;61204;49.980;8.358;2023-08-07T08:55:46;63.33;52.86;85.75;;
72276;Laerm;61204;49.980;8.358;2023-08-07T08:58:17;64.41;52.00;81.14;;
72276;Laerm;61204;49.980;8.358;2023-08-07T09:00:43;66.29;51.47;84.00;;
72276;Laerm;61204;49.980;8.358;2023-08-07T09:03:10;64.16;53.12;84.56;;
72276;Laerm;61204;49.980;8.358;2023-08-07T09:05:38;62.27;51.02;79.21;;
72276;Laerm;61204;49.980;8.358;2023-08-07T09:08:06;60.08;51.53;77.91;;
72276;Laerm;61204;49.980;8.358;2023-08-07T09:10:33;61.70;52.16;79.44;;
72276;Laerm;61204;49.980;8.358;2023-08-07T09:13:09;56.25;51.58;72.11;;
72276;Laerm;61204;49.980;8.358;2023-08-07T09:15:38;55.29;50.64;67.90;;
72276;Laerm;61204;49.980;8.358;2023-08-07T09:18:08;57.78;52.30;69.13;;
72276;Laerm;61204;49.980;8.358;2023-08-07T09:20:38;61.41;51.50;76.52;;
72276;Laerm;61204;49.980;8.358;2023-08-07T09:23:05;62.34;52.78;78.11;;
72276;Laerm;61204;49.980;8.358;2023-08-07T09:25:33;60.72;51.09;78.79;;
72276;Laerm;61204;49.980;8.358;2023-08-07T09:28:05;55.90;50.62;70.61;;
72276;Laerm;61204;49.980;8.358;2023-08-07T09:30:35;56.95;51.39;73.87;;
72276;Laerm;61204;49.980;8.358;2023-08-07T09:33:03;58.18;51.77;74.61;;
72276;Laerm;61204;49.980;8.358;2023-08-07T09:35:30;57.27;51.53;75.29;;
72276;Laerm;61204;49.980;8.358;2023-08-07T09:37:59;57.08;52.05;70.38;;
72276;Laerm;61204;49.980;8.358;2023-08-07T09:40:26;58.82;51.31;77.06;;
72276;Laerm;61204;49.980;8.358;2023-08-07T09:42:54;60.31;51.70;79.68;;
72276;Laerm;61204;49.980;8.358;2023-08-07T09:45:24;59.72;51.37;71.24;;
72276;Laerm;61204;49.980;8.358;2023-08-07T09:50:29;56.31;50.86;68.27;;
72276;Laerm;61204;49.980;8.358;2023-08-07T09:52:56;61.36;50.20;84.15;;
72276;Laerm;61204;49.980;8.358;2023-08-07T09:55:24;59.11;50.44;75.56;;
72276;Laerm;61204;49.980;8.358;2023-08-07T09:57:51;58.18;49.69;71.81;;
72276;Laerm;61204;49.980;8.358;2023-08-07T10:00:20;61.40;52.28;82.69;;
72276;Laerm;61204;49.980;8.358;2023-08-07T10:02:48;56.75;51.08;72.52;;
72276;Laerm;61204;49.980;8.358;2023-08-07T10:05:15;58.17;50.86;74.29;;
72276;Laerm;61204;49.980;8.358;2023-08-07T10:07:42;55.92;50.71;67.76;;
72276;Laerm;61204;49.980;8.358;2023-08-07T10:10:10;55.26;49.56;69.88;;
72276;Laerm;61204;49.980;8.358;2023-08-07T10:12:38;57.61;50.73;73.52;;
72276;Laerm;61204;49.980;8.358;2023-08-07T10:15:05;59.24;50.47;74.30;;
72276;Laerm;61204;49.980;8.358;2023-08-07T10:17:32;57.95;51.70;73.53;;
72276;Laerm;61204;49.980;8.358;2023-08-07T10:19:58;57.76;50.80;73.69;;
72276;Laerm;61204;49.980;8.358;2023-08-07T10:22:27;57.58;51.40;70.60;;
72276;Laerm;61204;49.980;8.358;2023-08-07T10:24:59;56.30;51.50;69.13;;
72276;Laerm;61204;49.980;8.358;2023-08-07T10:27:29;56.50;50.04;78.44;;
72276;Laerm;61204;49.980;8.358;2023-08-07T10:30:02;56.41;50.97;68.44;;
72276;Laerm;61204;49.980;8.358;2023-08-07T10:32:30;56.72;49.73;72.21;;
72276;Laerm;61204;49.980;8.358;2023-08-07T10:34:56;58.28;50.77;71.53;;
72276;Laerm;61204;49.980;8.358;2023-08-07T10:37:39;56.21;50.17;67.11;;
72276;Laerm;61204;49.980;8.358;2023-08-07T10:40:13;56.96;50.20;70.00;;
72276;Laerm;61204;49.980;8.358;2023-08-07T10:45:28;56.73;50.33;74.31;;
72276;Laerm;61204;49.980;8.358;2023-08-07T10:48:05;54.13;49.08;68.51;;
72276;Laerm;61204;49.980;8.358;2023-08-07T10:56:02;54.69;49.26;70.29;;
72276;Laerm;61204;49.980;8.358;2023-08-07T10:58:39;54.97;49.67;70.77;;
72276;Laerm;61204;49.980;8.358;2023-08-07T11:04:10;64.01;51.56;79.94;;
72276;Laerm;61204;49.980;8.358;2023-08-07T11:06:39;57.63;49.40;72.00;;
72276;Laerm;61204;49.980;8.358;2023-08-07T11:09:08;56.00;50.32;76.09;;
72276;Laerm;61204;49.980;8.358;2023-08-07T11:11:48;59.77;49.57;79.45;;
72276;Laerm;61204;49.980;8.358;2023-08-07T11:14:19;59.81;51.56;75.92;;
72276;Laerm;61204;49.980;8.358;2023-08-07T11:16:48;61.23;51.36;78.26;;
72276;Laerm;61204;49.980;8.358;2023-08-07T11:19:17;56.40;50.27;71.47;;
72276;Laerm;61204;49.980;8.358;2023-08-07T11:21:44;57.44;50.86;70.63;;
72276;Laerm;61204;49.980;8.358;2023-08-07T11:24:14;61.62;51.80;76.48;;
72276;Laerm;61204;49.980;8.358;2023-08-07T11:26:44;59.48;51.57;79.34;;
72276;Laerm;61204;49.980;8.358;2023-08-07T11:29:10;57.64;50.66;72.52;;
72276;Laerm;61204;49.980;8.358;2023-08-07T11:31:35;58.50;50.91;74.15;;
72276;Laerm;61204;49.980;8.358;2023-08-07T11:34:01;54.81;50.24;65.11;;
72276;Laerm;61204;49.980;8.358;2023-08-07T11:36:31;61.76;50.29;83.57;;
72276;Laerm;61204;49.980;8.358;2023-08-07T11:38:57;62.03;51.29;78.84;;
72276;Laerm;61204;49.980;8.358;2023-08-07T11:41:23;63.53;50.65;88.14;;
72276;Laerm;61204;49.980;8.358;2023-08-07T11:43:49;61.81;52.10;83.06;;
72276;Laerm;61204;49.980;8.358;2023-08-07T11:46:15;60.36;48.86;77.38;;
72276;Laerm;61204;49.980;8.358;2023-08-07T11:48:44;57.06;49.86;71.21;;
72276;Laerm;61204;49.980;8.358;2023-08-07T11:51:12;55.27;50.63;70.54;;
72276;Laerm;61204;49.980;8.358;2023-08-07T11:53:41;56.17;50.62;70.48;;
72276;Laerm;61204;49.980;8.358;2023-08-07T11:56:11;64.72;50.60;83.75;;
72276;Laerm;61204;49.980;8.358;2023-08-07T11:58:40;66.32;51.96;83.28;;
72276;Laerm;61204;49.980;8.358;2023-08-07T12:01:11;56.02;49.76;71.15;;
72276;Laerm;61204;49.980;8.358;2023-08-07T12:03:57;56.68;50.62;69.44;;
72276;Laerm;61204;49.980;8.358;2023-08-07T12:06:34;56.15;49.58;70.11;;
72276;Laerm;61204;49.980;8.358;2023-08-07T12:09:02;59.12;52.04;72.09;;
72276;Laerm;61204;49.980;8.358;2023-08-07T12:11:31;58.93;50.52;75.71;;
72276;Laerm;61204;49.980;8.358;2023-08-07T12:14:00;59.99;51.04;74.51;;
72276;Laerm;61204;49.980;8.358;2023-08-07T12:16:34;59.58;52.17;77.28;;
72276;Laerm;61204;49.980;8.358;2023-08-07T12:19:01;58.63;51.26;70.87;;
72276;Laerm;61204;49.980;8.358;2023-08-07T12:21:28;63.78;50.57;76.92;;
72276;Laerm;61204;49.980;8.358;2023-08-07T12:23:57;61.27;50.07;79.70;;
72276;Laerm;61204;49.980;8.358;2023-08-07T12:26:24;61.25;50.48;75.61;;
72276;Laerm;61204;49.980;8.358;2023-08-07T12:28:49;61.09;48.35;81.59;;
72276;Laerm;61204;49.980;8.358;2023-08-07T12:31:18;55.47;50.82;66.28;;
72276;Laerm;61204;49.980;8.358;2023-08-07T12:33:43;57.30;51.16;68.63;;
72276;Laerm;61204;49.980;8.358;2023-08-07T12:36:09;56.20;50.30;70.22;;
72276;Laerm;61204;49.980;8.358;2023-08-07T12:38:38;56.07;49.34;76.94;;
72276;Laerm;61204;49.980;8.358;2023-08-07T12:41:03;55.73;49.13;67.51;;
72276;Laerm;61204;49.980;8.358;2023-08-07T12:43:29;55.70;48.43;69.61;;
72276;Laerm;61204;49.980;8.358;2023-08-07T12:45:55;53.70;48.92;62.40;;
72276;Laerm;61204;49.980;8.358;2023-08-07T12:48:20;56.56;50.41;65.52;;
72276;Laerm;61204;49.980;8.358;2023-08-07T12:50:46;58.86;51.94;71.21;;
72276;Laerm;61204;49.980;8.358;2023-08-07T12:53:13;63.69;51.60;85.38;;
72276;Laerm;61204;49.980;8.358;2023-08-07T12:55:39;62.54;50.43;87.32;;
72276;Laerm;61204;49.980;8.358;2023-08-07T12:58:05;60.14;50.20;75.55;;
72276;Laerm;61204;49.980;8.358;2023-08-07T13:00:31;59.48;51.11;69.90;;
72276;Laerm;61204;49.980;8.358;2023-08-07T13:02:56;65.44;51.02;81.82;;
72276;Laerm;61204;49.980;8.358;2023-08-07T13:05:24;58.62;49.75;75.67;;
72276;Laerm;61204;49.980;8.358;2023-08-07T13:07:51;56.46;48.94;70.11;;
72276;Laerm;61204;49.980;8.358;2023-08-07T13:10:20;59.57;49.56;76.20;;
72276;Laerm;61204;49.980;8.358;2023-08-07T13:12:49;59.26;49.88;75.85;;
72276;Laerm;61204;49.980;8.358;2023-08-07T13:15:17;58.07;50.72;77.41;;
72276;Laerm;61204;49.980;8.358;2023-08-07T13:17:44;66.95;50.88;89.52;;
72276;Laerm;61204;49.980;8.358;2023-08-07T13:20:13;61.06;52.11;79.70;;
72276;Laerm;61204;49.980;8.358;2023-08-07T13:22:44;60.90;52.05;79.58;;
72276;Laerm;61204;49.980;8.358;2023-08-07T13:25:12;63.14;50.08;78.10;;
72276;Laerm;61204;49.980;8.358;2023-08-07T13:27:40;60.48;50.23;78.33;;
72276;Laerm;61204;49.980;8.358;2023-08-07T13:30:09;61.03;51.30;80.12;;
72276;Laerm;61204;49.980;8.358;2023-08-07T13:32:36;60.59;50.55;78.14;;
72276;Laerm;61204;49.980;8.358;2023-08-07T13:35:02;60.68;49.92;83.84;;
72276;Laerm;61204;49.980;8.358;2023-08-07T13:37:29;60.87;49.90;80.14;;
72276;Laerm;61204;49.980;8.358;2023-08-07T13:39:54;56.82;49.07;70.83;;
72276;Laerm;61204;49.980;8.358;2023-08-07T13:42:24;55.62;50.08;73.98;;
72276;Laerm;61204;49.980;8.358;2023-08-07T13:44:57;60.99;49.03;80.23;;
72276;Laerm;61204;49.980;8.358;2023-08-07T13:47:25;59.61;49.15;77.25;;
72276;Laerm;61204;49.980;8.358;2023-08-07T13:49:53;55.89;49.66;75.55;;
72276;Laerm;61204;49.980;8.358;2023-08-07T13:52:23;56.31;49.07;68.28;;
72276;Laerm;61204;49.980;8.358;2023-08-07T13:54:50;59.30;50.67;82.55;;
72276;Laerm;61204;49.980;8.358;2023-08-07T13:57:16;57.46;49.85;72.53;;
72276;Laerm;61204;49.980;8.358;2023-08-07T13:59:42;58.74;51.72;73.78;;